Matrah, Oman
Current Conditions -  °F | °C
As of 10:50 AM on Friday 31 Oct 2014 (Local Time) from OOMS Reporting Station
Clear Clear  
Wind Chill: 86°   Ceiling: Unl
Heat Index: 93°   Visibility: 5mi
Dew Point: 73°   Wind: 10mph
Humidity: 66%   Direction: 40°NE
Pressure: 29.91"   Gusts: NA
Location:  23.61°N, 58.54°E
Report Text: OOMS 310650Z 04009KT 8000 NSC 30/23 Q1013 NOSIG
Loading
Personal Weather Stations






























Interactive Weather Map
Tropical Storm Tracking
New forecast layout! Learn more

10-Day Weather Forecast

Advertisements
Track Severe Weather on mobile